createdAt,value
2023-01-29T00:00:03.668Z,33.22
2023-01-29T00:02:30.077Z,29.75
2023-01-29T00:04:59.052Z,31.48
2023-01-29T00:07:25.623Z,29.65
2023-01-29T00:09:51.899Z,31.38
2023-01-29T00:12:18.203Z,31.85
2023-01-29T00:14:44.496Z,29.98
2023-01-29T00:17:10.907Z,33.08
2023-01-29T00:19:37.232Z,35.45
2023-01-29T00:22:03.654Z,30.88
2023-01-29T00:24:30.006Z,33.65
2023-01-29T00:26:56.363Z,28.10
2023-01-29T00:29:22.669Z,33.35
2023-01-29T00:31:49.093Z,33.03
2023-01-29T00:34:15.446Z,31.75
2023-01-29T00:36:44.219Z,32.42
2023-01-29T00:39:10.978Z,30.95
2023-01-29T00:41:56.232Z,35.00
2023-01-29T00:44:40.974Z,34.92
2023-01-29T00:47:30.768Z,32.13
2023-01-29T00:49:57.379Z,30.73
2023-01-29T00:52:23.911Z,33.90
2023-01-29T00:54:50.700Z,29.58
2023-01-29T00:57:16.950Z,33.03
2023-01-29T00:59:43.348Z,33.22
2023-01-29T01:02:28.428Z,32.25
2023-01-29T01:04:54.701Z,32.88
2023-01-29T01:07:20.966Z,35.25
2023-01-29T01:10:06.030Z,31.48
2023-01-29T01:12:32.416Z,31.40
2023-01-29T01:14:58.715Z,31.00
2023-01-29T01:17:25.103Z,28.58
2023-01-29T01:19:51.449Z,31.30
2023-01-29T01:22:18.038Z,33.00
2023-01-29T01:24:44.348Z,32.13
2023-01-29T01:27:10.770Z,32.85
2023-01-29T01:29:37.047Z,29.48
2023-01-29T01:32:03.434Z,29.38
2023-01-29T01:34:29.722Z,35.00
2023-01-29T01:36:56.313Z,32.10
2023-01-29T01:39:23.182Z,34.15
2023-01-29T01:41:49.473Z,33.05
2023-01-29T01:44:34.668Z,36.40
2023-01-29T01:47:01.577Z,37.95
2023-01-29T01:49:27.927Z,31.90
2023-01-29T01:51:54.244Z,31.33
2023-01-29T01:54:31.519Z,33.20
2023-01-29T01:57:09.187Z,32.05
2023-01-29T01:59:40.029Z,35.63
2023-01-29T02:02:25.590Z,32.00
2023-01-29T02:05:11.319Z,29.67
2023-01-29T02:08:00.307Z,31.20
2023-01-29T02:12:53.126Z,34.17
2023-01-29T02:15:19.630Z,33.45
2023-01-29T02:17:48.399Z,34.05
2023-01-29T02:20:27.096Z,36.78
2023-01-29T02:23:02.621Z,31.42
2023-01-29T02:25:43.029Z,35.25
2023-01-29T02:28:15.473Z,30.58
2023-01-29T02:30:46.522Z,34.22
2023-01-29T02:33:23.621Z,31.77
2023-01-29T02:35:56.030Z,37.42
2023-01-29T02:38:22.497Z,33.22
2023-01-29T02:40:54.648Z,31.63
2023-01-29T02:43:44.612Z,35.35
2023-01-29T02:46:14.052Z,40.03
2023-01-29T02:48:44.049Z,32.13
2023-01-29T02:51:33.844Z,37.65
2023-01-29T02:54:00.278Z,34.97
2023-01-29T02:56:44.465Z,29.92
2023-01-29T02:59:18.589Z,36.83
2023-01-29T03:01:48.126Z,35.45
2023-01-29T03:04:18.645Z,37.83
2023-01-29T03:06:48.133Z,32.30
2023-01-29T03:09:20.036Z,33.30
2023-01-29T03:11:49.594Z,29.48
2023-01-29T03:14:18.594Z,31.63
2023-01-29T03:16:54.450Z,32.30
2023-01-29T03:19:29.141Z,32.50
2023-01-29T03:21:59.835Z,32.85
2023-01-29T03:24:49.156Z,32.63
2023-01-29T03:27:35.350Z,29.58
2023-01-29T03:30:20.638Z,33.22
2023-01-29T03:32:47.745Z,33.95
2023-01-29T03:35:21.063Z,31.67
2023-01-29T03:37:48.472Z,36.35
2023-01-29T03:40:15.466Z,29.30
2023-01-29T03:42:48.358Z,33.53
2023-01-29T03:45:14.775Z,33.00
2023-01-29T03:48:00.002Z,33.58
2023-01-29T03:50:35.517Z,36.33
2023-01-29T03:53:10.981Z,32.50
2023-01-29T03:55:58.458Z,31.45
2023-01-29T03:58:43.872Z,31.77
2023-01-29T04:01:18.343Z,32.78
2023-01-29T04:03:49.967Z,31.90
2023-01-29T04:06:18.820Z,33.08
2023-01-29T04:08:51.286Z,29.50
2023-01-29T04:11:19.881Z,34.75
2023-01-29T04:13:46.690Z,31.40
2023-01-29T04:16:16.100Z,30.40
2023-01-29T04:18:44.962Z,33.80
2023-01-29T04:21:11.431Z,30.70
2023-01-29T04:23:37.970Z,33.50
2023-01-29T04:26:16.049Z,33.63
2023-01-29T04:28:42.374Z,30.83
2023-01-29T04:31:11.477Z,31.60
2023-01-29T04:33:44.744Z,33.85
2023-01-29T04:36:29.027Z,32.35
2023-01-29T04:39:14.337Z,33.58
2023-01-29T04:41:45.961Z,33.58
2023-01-29T04:44:34.432Z,33.25
2023-01-29T04:47:06.025Z,37.63
2023-01-29T04:49:45.933Z,30.45
2023-01-29T04:52:12.387Z,35.28
2023-01-29T04:54:51.326Z,31.40
2023-01-29T04:57:23.439Z,37.92
2023-01-29T05:00:00.731Z,34.85
2023-01-29T05:02:28.029Z,36.80
2023-01-29T05:04:55.266Z,34.67
2023-01-29T05:07:22.936Z,35.65
2023-01-29T05:12:17.554Z,37.67
2023-01-29T05:14:45.480Z,35.67
2023-01-29T05:17:15.992Z,35.47
2023-01-29T05:19:45.266Z,33.20
2023-01-29T05:22:12.967Z,32.28
2023-01-29T05:27:33.170Z,36.35
2023-01-29T05:30:00.173Z,32.80
2023-01-29T05:35:26.287Z,35.15
2023-01-29T05:37:59.156Z,39.75
2023-01-29T05:40:26.665Z,33.85
2023-01-29T05:42:53.288Z,32.97
2023-01-29T05:45:19.972Z,34.10
2023-01-29T05:47:47.587Z,35.63
2023-01-29T05:52:58.023Z,34.63
2023-01-29T05:55:45.855Z,35.00
2023-01-29T05:58:24.042Z,36.93
2023-01-29T06:00:54.269Z,33.78
2023-01-29T06:03:21.291Z,34.22
2023-01-29T06:05:52.330Z,33.85
2023-01-29T06:08:23.660Z,36.03
2023-01-29T06:10:50.692Z,36.88
2023-01-29T06:13:22.726Z,39.90
2023-01-29T06:15:50.127Z,35.35
2023-01-29T06:18:16.678Z,32.88
2023-01-29T06:20:43.136Z,34.13
2023-01-29T06:23:09.630Z,37.25
2023-01-29T06:25:36.219Z,38.72
2023-01-29T06:28:02.755Z,39.38
2023-01-29T06:30:29.917Z,38.33
2023-01-29T06:32:58.928Z,39.95
2023-01-29T06:35:25.774Z,32.63
2023-01-29T06:37:52.688Z,34.08
2023-01-29T06:40:19.469Z,36.15
2023-01-29T06:42:46.265Z,32.00
2023-01-29T06:45:13.210Z,38.20
2023-01-29T06:47:40.102Z,43.53
2023-01-29T06:50:07.207Z,33.63
2023-01-29T06:52:33.969Z,38.33
2023-01-29T06:55:00.559Z,40.13
2023-01-29T06:57:28.800Z,39.25
2023-01-29T06:59:55.358Z,39.00
2023-01-29T07:02:21.833Z,40.78
2023-01-29T07:04:48.338Z,38.67
2023-01-29T07:07:14.745Z,38.72
2023-01-29T07:09:41.618Z,40.58
2023-01-29T07:12:08.774Z,37.25
2023-01-29T07:14:35.202Z,41.63
2023-01-29T07:17:01.768Z,36.78
2023-01-29T07:19:28.235Z,40.90
2023-01-29T07:21:54.701Z,45.55
2023-01-29T07:24:23.278Z,41.08
2023-01-29T07:26:49.746Z,38.92
2023-01-29T07:29:16.227Z,43.35
2023-01-29T07:31:42.755Z,40.42
2023-01-29T07:34:11.488Z,39.72
2023-01-29T07:36:39.908Z,44.47
2023-01-29T07:39:07.343Z,44.42
2023-01-29T07:41:39.956Z,38.50
2023-01-29T07:44:13.195Z,44.17
2023-01-29T07:46:39.773Z,41.90
2023-01-29T07:49:11.639Z,39.58
2023-01-29T07:51:43.047Z,41.55
2023-01-29T07:54:09.513Z,35.22
2023-01-29T07:56:37.178Z,44.80
2023-01-29T08:01:30.101Z,40.63
2023-01-29T08:03:56.977Z,37.45
2023-01-29T08:06:23.377Z,43.50
2023-01-29T08:08:49.817Z,39.72
2023-01-29T08:11:17.276Z,38.13
2023-01-29T08:13:46.767Z,37.70
2023-01-29T08:16:13.382Z,30.83
2023-01-29T08:18:48.953Z,42.83
2023-01-29T08:21:16.160Z,38.75
2023-01-29T08:23:42.669Z,40.47
2023-01-29T08:26:10.530Z,38.83
2023-01-29T08:28:51.182Z,40.85
2023-01-29T08:31:20.758Z,37.53
2023-01-29T08:33:47.484Z,41.67
2023-01-29T08:36:16.414Z,39.45
2023-01-29T08:38:42.941Z,35.75
2023-01-29T08:41:10.699Z,41.92
2023-01-29T08:46:05.287Z,35.95
2023-01-29T08:48:31.907Z,32.60
2023-01-29T08:51:02.372Z,37.28
2023-01-29T08:53:28.917Z,39.55
2023-01-29T08:55:56.493Z,36.50
2023-01-29T08:58:22.892Z,37.13
2023-01-29T09:00:49.559Z,34.92
2023-01-29T09:03:18.325Z,37.90
2023-01-29T09:05:48.768Z,36.25
2023-01-29T09:08:40.983Z,33.58
2023-01-29T09:11:09.039Z,37.92
2023-01-29T09:13:38.949Z,37.70
2023-01-29T09:16:05.577Z,38.60
2023-01-29T09:18:32.881Z,39.45
2023-01-29T09:21:02.087Z,34.10
2023-01-29T09:23:29.418Z,40.13
2023-01-29T09:25:56.506Z,35.78
2023-01-29T09:28:23.261Z,34.28
2023-01-29T09:30:51.271Z,32.10
2023-01-29T09:33:18.452Z,42.33
2023-01-29T09:35:47.895Z,36.25
2023-01-29T09:38:14.596Z,35.20
2023-01-29T09:40:46.215Z,33.73
2023-01-29T09:43:24.763Z,33.13
2023-01-29T09:46:04.788Z,36.47
2023-01-29T09:48:34.511Z,38.78
2023-01-29T09:51:17.404Z,37.15
2023-01-29T09:53:49.357Z,35.53
2023-01-29T09:56:30.451Z,36.75
2023-01-29T09:59:00.538Z,36.13
2023-01-29T10:01:29.416Z,37.90
2023-01-29T10:04:04.850Z,35.47
2023-01-29T10:06:31.447Z,34.88
2023-01-29T10:09:19.438Z,33.33
2023-01-29T10:12:08.959Z,32.57
2023-01-29T10:14:56.152Z,37.85
2023-01-29T10:17:31.877Z,42.13
2023-01-29T10:20:05.874Z,36.10
2023-01-29T10:22:38.878Z,33.03
2023-01-29T10:25:12.194Z,43.30
2023-01-29T10:27:45.407Z,31.63
2023-01-29T10:30:39.149Z,36.80
2023-01-29T10:33:06.601Z,28.75
2023-01-29T10:35:36.219Z,33.80
2023-01-29T10:38:22.588Z,39.30
2023-01-29T10:41:01.453Z,33.17
2023-01-29T10:43:33.330Z,30.85
2023-01-29T10:46:11.354Z,35.85
2023-01-29T10:48:48.238Z,36.53
2023-01-29T10:51:15.229Z,36.80
2023-01-29T10:54:00.229Z,34.33
2023-01-29T10:56:26.715Z,32.70
2023-01-29T10:59:15.997Z,34.03
2023-01-29T11:01:42.685Z,32.40
2023-01-29T11:04:12.000Z,36.53
2023-01-29T11:06:39.714Z,29.95
2023-01-29T11:11:48.203Z,32.53
2023-01-29T11:14:39.631Z,33.58
2023-01-29T11:17:18.405Z,31.83
2023-01-29T11:22:38.126Z,28.33
2023-01-29T11:25:26.301Z,34.92
2023-01-29T11:27:59.487Z,30.73
2023-01-29T11:30:39.919Z,29.60
2023-01-29T11:33:15.214Z,31.83
2023-01-29T11:35:43.784Z,30.55
2023-01-29T11:38:16.443Z,32.90
2023-01-29T11:40:46.887Z,34.03
2023-01-29T11:43:13.814Z,33.10
2023-01-29T11:45:41.719Z,32.13
2023-01-29T11:48:19.208Z,32.22
2023-01-29T11:50:55.284Z,34.33
2023-01-29T11:53:24.048Z,33.15
2023-01-29T11:55:51.780Z,29.92
2023-01-29T11:58:21.148Z,28.17
2023-01-29T12:00:59.118Z,32.08
2023-01-29T12:03:32.575Z,30.13
2023-01-29T12:06:07.282Z,28.88
2023-01-29T12:08:36.550Z,28.52
2023-01-29T12:11:22.142Z,29.73
2023-01-29T12:13:53.613Z,33.95
2023-01-29T12:16:35.692Z,33.38
2023-01-29T12:19:10.798Z,33.55
2023-01-29T12:21:58.191Z,26.50
2023-01-29T12:24:27.779Z,32.53
2023-01-29T12:27:14.443Z,24.90
2023-01-29T12:29:44.710Z,31.02
2023-01-29T12:32:35.803Z,28.35
2023-01-29T12:35:03.317Z,26.08
2023-01-29T12:37:46.185Z,24.40
2023-01-29T12:40:13.999Z,28.08
2023-01-29T12:42:55.772Z,29.42
2023-01-29T12:45:29.448Z,28.20
2023-01-29T12:47:59.255Z,26.98
2023-01-29T12:50:36.381Z,29.95
2023-01-29T12:53:21.888Z,34.38
2023-01-29T12:55:55.575Z,31.48
2023-01-29T12:58:43.389Z,33.85
2023-01-29T13:01:15.621Z,30.75
2023-01-29T13:03:48.863Z,31.85
2023-01-29T13:06:17.686Z,35.05
2023-01-29T13:08:53.945Z,29.77
2023-01-29T13:11:27.065Z,29.65
2023-01-29T13:13:59.254Z,32.72
2023-01-29T13:16:28.060Z,30.95
2023-01-29T13:19:02.802Z,30.27
2023-01-29T13:21:39.106Z,32.50
2023-01-29T13:24:10.095Z,30.70
2023-01-29T13:26:39.161Z,32.08
2023-01-29T13:29:25.283Z,29.75
2023-01-29T13:32:01.359Z,35.60
2023-01-29T13:34:45.903Z,29.77
2023-01-29T13:37:35.301Z,33.88
2023-01-29T13:40:02.577Z,26.02
2023-01-29T13:42:36.283Z,32.72
2023-01-29T13:45:04.176Z,33.28
2023-01-29T13:47:33.263Z,30.10
2023-01-29T13:50:00.919Z,36.00
2023-01-29T13:52:27.317Z,31.77
2023-01-29T13:54:57.295Z,36.25
2023-01-29T13:57:55.804Z,41.03
2023-01-29T14:00:22.607Z,34.05
2023-01-29T14:02:49.351Z,36.17
2023-01-29T14:05:31.477Z,32.13
2023-01-29T14:08:02.970Z,35.45
2023-01-29T14:10:30.663Z,36.63
2023-01-29T14:15:29.158Z,38.92
2023-01-29T14:17:59.926Z,32.08
2023-01-29T14:20:45.179Z,35.85
2023-01-29T14:23:26.958Z,39.42
2023-01-29T14:25:53.587Z,38.70
2023-01-29T14:28:25.101Z,36.17
2023-01-29T14:30:52.310Z,37.83
2023-01-29T14:33:39.884Z,44.75
2023-01-29T14:38:34.745Z,33.95
2023-01-29T14:41:18.582Z,42.75
2023-01-29T14:43:45.160Z,42.72
2023-01-29T14:46:30.540Z,42.28
2023-01-29T14:48:57.438Z,41.30
2023-01-29T14:51:25.323Z,40.25
2023-01-29T14:53:53.056Z,34.47
2023-01-29T14:56:24.731Z,36.97
2023-01-29T14:59:02.895Z,43.10
2023-01-29T15:01:35.910Z,41.40
2023-01-29T15:04:02.394Z,44.05
2023-01-29T15:06:55.394Z,37.85
2023-01-29T15:09:46.020Z,42.85
2023-01-29T15:12:30.691Z,46.10
2023-01-29T15:14:57.552Z,47.60
2023-01-29T15:17:37.649Z,42.58
2023-01-29T15:20:22.813Z,41.75
2023-01-29T15:22:49.184Z,43.83
2023-01-29T15:25:15.989Z,43.13
2023-01-29T15:27:43.749Z,37.13
2023-01-29T15:32:37.738Z,37.72
2023-01-29T15:37:35.051Z,47.17
2023-01-29T15:40:08.554Z,47.05
2023-01-29T15:42:46.819Z,44.90
2023-01-29T15:47:51.834Z,39.47
2023-01-29T15:50:18.397Z,44.72
2023-01-29T15:52:49.048Z,42.00
2023-01-29T15:55:17.418Z,46.63
2023-01-29T15:57:45.208Z,40.05
2023-01-29T16:02:39.858Z,45.83
2023-01-29T16:05:26.655Z,41.75
2023-01-29T16:07:54.206Z,41.03
2023-01-29T16:10:21.952Z,38.30
2023-01-29T16:15:21.185Z,35.85
2023-01-29T16:17:50.533Z,42.45
2023-01-29T16:20:41.380Z,33.60
2023-01-29T16:23:24.784Z,39.40
2023-01-29T16:25:51.641Z,38.22
2023-01-29T16:28:19.104Z,33.03
2023-01-29T16:30:50.676Z,36.40
2023-01-29T16:33:17.594Z,38.08
2023-01-29T16:35:50.189Z,37.83
2023-01-29T16:38:25.091Z,35.72
2023-01-29T16:41:14.477Z,35.20
2023-01-29T16:43:54.539Z,36.20
2023-01-29T16:46:21.077Z,35.25
2023-01-29T16:48:47.960Z,38.40
2023-01-29T16:51:25.263Z,38.63
2023-01-29T16:54:11.578Z,35.33
2023-01-29T16:56:52.922Z,40.13
2023-01-29T16:59:21.453Z,34.25
2023-01-29T17:01:49.484Z,38.10
2023-01-29T17:04:18.222Z,37.75
2023-01-29T17:06:46.213Z,36.65
2023-01-29T17:09:25.569Z,40.38
2023-01-29T17:11:56.697Z,36.45
2023-01-29T17:14:24.006Z,42.03
2023-01-29T17:16:53.398Z,38.53
2023-01-29T17:19:20.901Z,43.53
2023-01-29T17:24:13.761Z,37.17
2023-01-29T17:26:40.613Z,39.33
2023-01-29T17:29:13.289Z,33.22
2023-01-29T17:31:39.787Z,37.55
2023-01-29T17:34:10.513Z,35.75
2023-01-29T17:36:37.030Z,42.03
2023-01-29T17:39:10.856Z,40.95
2023-01-29T17:41:38.143Z,42.33
2023-01-29T17:44:04.492Z,38.85
2023-01-29T17:46:30.978Z,41.08
2023-01-29T17:48:57.630Z,38.15
2023-01-29T17:51:25.076Z,31.35
2023-01-29T17:53:51.866Z,37.72
2023-01-29T17:56:21.387Z,42.45
2023-01-29T17:58:47.979Z,44.03
2023-01-29T18:01:14.653Z,42.85
2023-01-29T18:03:41.359Z,47.28
2023-01-29T18:06:09.204Z,37.67
2023-01-29T18:08:36.855Z,39.53
2023-01-29T18:13:30.255Z,39.33
2023-01-29T18:15:56.819Z,38.57
2023-01-29T18:18:24.115Z,42.15
2023-01-29T18:20:50.740Z,44.95
2023-01-29T18:23:18.328Z,39.17
2023-01-29T18:28:17.274Z,42.25
2023-01-29T18:30:45.948Z,40.55
2023-01-29T18:33:12.911Z,41.45
2023-01-29T18:35:39.383Z,38.08
2023-01-29T18:38:05.860Z,40.85
2023-01-29T18:40:32.397Z,49.55
2023-01-29T18:43:01.952Z,49.65
2023-01-29T18:45:34.628Z,48.83
2023-01-29T18:48:01.327Z,41.00
2023-01-29T18:50:28.883Z,45.07
2023-01-29T18:52:55.273Z,62.58
2023-01-29T18:55:22.344Z,39.90
2023-01-29T18:58:27.239Z,41.45
2023-01-29T19:00:39.012Z,41.13
2023-01-29T19:03:05.371Z,42.20
2023-01-29T19:05:33.248Z,44.70
2023-01-29T19:07:59.769Z,44.70
2023-01-29T19:10:26.438Z,41.40
2023-01-29T19:12:53.071Z,30.47
2023-01-29T19:15:22.015Z,38.78
2023-01-29T19:17:49.040Z,41.22
2023-01-29T19:20:15.776Z,38.42
2023-01-29T19:22:42.250Z,38.47
2023-01-29T19:25:09.000Z,44.38
2023-01-29T19:27:35.406Z,38.13
2023-01-29T19:30:02.736Z,37.33
2023-01-29T19:32:30.056Z,32.42
2023-01-29T19:34:57.762Z,33.65
2023-01-29T19:37:24.410Z,36.75
2023-01-29T19:39:50.974Z,39.20
2023-01-29T19:42:17.353Z,37.38
2023-01-29T19:44:45.372Z,38.58
2023-01-29T19:47:12.813Z,34.40
2023-01-29T19:49:40.420Z,43.90
2023-01-29T19:52:14.716Z,35.47
2023-01-29T19:54:46.108Z,38.42
2023-01-29T19:57:12.497Z,40.92
2023-01-29T19:59:38.813Z,36.75
2023-01-29T20:02:05.434Z,39.58
2023-01-29T20:04:31.726Z,32.97
2023-01-29T20:06:58.389Z,30.35
2023-01-29T20:09:25.692Z,38.83
2023-01-29T20:11:54.014Z,36.92
2023-01-29T20:14:20.466Z,32.03
2023-01-29T20:16:46.769Z,39.42
2023-01-29T20:19:14.943Z,30.80
2023-01-29T20:21:42.210Z,35.45
2023-01-29T20:24:12.316Z,32.63
2023-01-29T20:26:39.019Z,38.60
2023-01-29T20:29:06.410Z,36.47
2023-01-29T20:31:33.401Z,28.70
2023-01-29T20:33:59.851Z,34.22
2023-01-29T20:36:26.165Z,36.25
2023-01-29T20:38:52.463Z,36.42
2023-01-29T20:41:19.448Z,37.78
2023-01-29T20:43:46.889Z,34.15
2023-01-29T20:46:13.320Z,41.63
2023-01-29T20:48:40.092Z,31.55
2023-01-29T20:51:09.163Z,32.38
2023-01-29T20:53:36.149Z,31.60
2023-01-29T20:56:04.424Z,34.10
2023-01-29T20:58:31.143Z,37.13
2023-01-29T21:00:58.048Z,34.40
2023-01-29T21:03:24.425Z,38.00
2023-01-29T21:05:51.567Z,40.17
2023-01-29T21:08:17.874Z,37.75
2023-01-29T21:10:45.691Z,38.55
2023-01-29T21:13:12.177Z,29.63
2023-01-29T21:15:38.641Z,44.40
2023-01-29T21:18:06.478Z,36.15
2023-01-29T21:20:32.990Z,33.97
2023-01-29T21:22:59.336Z,35.83
2023-01-29T21:25:26.027Z,37.15
2023-01-29T21:27:52.423Z,35.60
2023-01-29T21:30:19.326Z,33.08
2023-01-29T21:32:45.855Z,35.15
2023-01-29T21:35:12.564Z,37.80
2023-01-29T21:37:38.986Z,47.67
2023-01-29T21:40:05.956Z,37.00
2023-01-29T21:42:50.681Z,45.92
2023-01-29T21:45:17.049Z,36.50
2023-01-29T21:47:43.427Z,34.65
2023-01-29T21:50:10.015Z,39.15
2023-01-29T21:52:39.539Z,38.05
2023-01-29T21:55:06.298Z,40.67
2023-01-29T21:57:33.566Z,40.80
2023-01-29T21:59:59.914Z,33.35
2023-01-29T22:02:27.659Z,45.38
2023-01-29T22:05:05.334Z,37.80
2023-01-29T22:07:38.582Z,43.78
2023-01-29T22:10:05.212Z,40.67
2023-01-29T22:12:31.550Z,39.92
2023-01-29T22:14:57.842Z,40.42
2023-01-29T22:17:24.184Z,42.67
2023-01-29T22:19:50.508Z,37.25
2023-01-29T22:22:17.499Z,41.22
2023-01-29T22:24:46.481Z,35.63
2023-01-29T22:27:13.651Z,39.50
2023-01-29T22:29:39.999Z,44.25
2023-01-29T22:32:06.767Z,42.53
2023-01-29T22:34:33.324Z,44.33
2023-01-29T22:36:59.685Z,43.80
2023-01-29T22:39:25.962Z,42.80
2023-01-29T22:41:52.405Z,45.72
2023-01-29T22:44:18.732Z,43.95
2023-01-29T22:46:45.009Z,44.17
2023-01-29T22:49:11.576Z,53.50
2023-01-29T22:51:37.881Z,48.55
2023-01-29T22:54:04.354Z,41.75
2023-01-29T22:56:31.066Z,44.40
2023-01-29T22:58:58.550Z,43.47
2023-01-29T23:01:26.000Z,42.30
2023-01-29T23:03:52.280Z,42.15
2023-01-29T23:06:18.637Z,46.20
2023-01-29T23:08:45.311Z,42.07
2023-01-29T23:11:14.682Z,46.33
2023-01-29T23:13:44.904Z,50.47
2023-01-29T23:16:11.439Z,52.35
2023-01-29T23:18:38.094Z,34.10
2023-01-29T23:21:04.867Z,43.83
2023-01-29T23:23:31.734Z,41.55
2023-01-29T23:26:17.468Z,54.55
2023-01-29T23:28:44.476Z,45.90
2023-01-29T23:31:11.426Z,46.83
2023-01-29T23:33:37.947Z,39.92
2023-01-29T23:36:04.880Z,54.78
2023-01-29T23:38:31.170Z,45.67
2023-01-29T23:40:58.125Z,47.42
2023-01-29T23:43:27.939Z,52.78
2023-01-29T23:45:54.479Z,46.17
2023-01-29T23:48:21.012Z,44.50
2023-01-29T23:50:47.837Z,47.13
2023-01-29T23:53:15.537Z,51.40
2023-01-29T23:58:08.206Z,57.28
